sensor_id;sensor_type;location;lat;lon;timestamp;pressure;altitude;pressure_sealevel;temperature;humidity
70781;BME280;72716;48.814;2.126;2023-09-19T00:01:28;99980.28;;;13.81;nan
70781;BME280;72716;48.814;2.126;2023-09-19T00:03:55;99980.34;;;13.78;nan
70781;BME280;72716;48.814;2.126;2023-09-19T00:06:20;99975.19;;;13.74;nan
70781;BME280;72716;48.814;2.126;2023-09-19T00:08:46;99982.19;;;13.73;nan
70781;BME280;72716;48.814;2.126;2023-09-19T00:11:12;99984.00;;;13.71;nan
70781;BME280;72716;48.814;2.126;2023-09-19T00:13:38;99988.44;;;13.69;nan
70781;BME280;72716;48.814;2.126;2023-09-19T00:16:10;99986.81;;;13.62;nan
70781;BME280;72716;48.814;2.126;2023-09-19T00:18:37;99990.34;;;13.61;nan
70781;BME280;72716;48.814;2.126;2023-09-19T00:21:03;99993.94;;;13.56;nan
70781;BME280;72716;48.814;2.126;2023-09-19T00:23:30;99998.44;;;13.48;nan
70781;BME280;72716;48.814;2.126;2023-09-19T00:26:00;100003.72;;;13.48;nan
70781;BME280;72716;48.814;2.126;2023-09-19T00:28:26;100002.94;;;13.43;nan
70781;BME280;72716;48.814;2.126;2023-09-19T00:30:51;100011.84;;;13.34;nan
70781;BME280;72716;48.814;2.126;2023-09-19T00:33:17;100010.97;;;13.33;nan
70781;BME280;72716;48.814;2.126;2023-09-19T00:35:51;100012.00;;;13.26;nan
70781;BME280;72716;48.814;2.126;2023-09-19T00:38:17;100008.56;;;13.22;nan
70781;BME280;72716;48.814;2.126;2023-09-19T00:40:45;100014.59;;;13.28;nan
70781;BME280;72716;48.814;2.126;2023-09-19T00:43:10;100013.81;;;13.22;nan
70781;BME280;72716;48.814;2.126;2023-09-19T00:45:37;100012.03;;;13.25;nan
70781;BME280;72716;48.814;2.126;2023-09-19T00:48:04;100013.88;;;13.19;nan
70781;BME280;72716;48.814;2.126;2023-09-19T00:50:31;100015.69;;;13.17;nan
70781;BME280;72716;48.814;2.126;2023-09-19T00:52:58;100020.06;;;13.17;nan
70781;BME280;72716;48.814;2.126;2023-09-19T00:55:25;100016.56;;;13.15;nan
70781;BME280;72716;48.814;2.126;2023-09-19T00:57:51;100022.72;;;13.15;nan
70781;BME280;72716;48.814;2.126;2023-09-19T01:00:16;100020.13;;;13.14;nan
70781;BME280;72716;48.814;2.126;2023-09-19T01:02:45;100016.72;;;13.07;nan
70781;BME280;72716;48.814;2.126;2023-09-19T01:05:12;100026.34;;;13.08;nan
70781;BME280;72716;48.814;2.126;2023-09-19T01:07:37;100027.22;;;13.08;nan
70781;BME280;72716;48.814;2.126;2023-09-19T01:10:06;100032.31;;;13.16;nan
70781;BME280;72716;48.814;2.126;2023-09-19T01:18:40;100041.19;;;13.10;nan
70781;BME280;72716;48.814;2.126;2023-09-19T01:21:28;100027.16;;;13.11;nan
70781;BME280;72716;48.814;2.126;2023-09-19T01:24:10;100019.25;;;13.11;nan
70781;BME280;72716;48.814;2.126;2023-09-19T01:29:39;100021.91;;;13.11;nan
70781;BME280;72716;48.814;2.126;2023-09-19T01:32:06;100033.31;;;13.10;nan
70781;BME280;72716;48.814;2.126;2023-09-19T01:37:13;100033.41;;;13.04;nan
70781;BME280;72716;48.814;2.126;2023-09-19T01:39:40;100032.47;;;13.08;nan
70781;BME280;72716;48.814;2.126;2023-09-19T01:42:18;100031.56;;;13.09;nan
70781;BME280;72716;48.814;2.126;2023-09-19T01:44:51;100036.91;;;13.05;nan
70781;BME280;72716;48.814;2.126;2023-09-19T01:47:26;100036.09;;;13.01;nan
70781;BME280;72716;48.814;2.126;2023-09-19T01:50:02;100039.63;;;13.00;nan
70781;BME280;72716;48.814;2.126;2023-09-19T01:52:36;100037.06;;;12.94;nan
70781;BME280;72716;48.814;2.126;2023-09-19T01:55:09;100040.56;;;12.94;nan
70781;BME280;72716;48.814;2.126;2023-09-19T01:57:54;100050.31;;;12.87;nan
70781;BME280;72716;48.814;2.126;2023-09-19T02:00:24;100052.03;;;12.89;nan
70781;BME280;72716;48.814;2.126;2023-09-19T02:02:51;100049.41;;;12.90;nan
70781;BME280;72716;48.814;2.126;2023-09-19T02:05:23;100052.03;;;12.89;nan
70781;BME280;72716;48.814;2.126;2023-09-19T02:07:49;100054.66;;;12.89;nan
70781;BME280;72716;48.814;2.126;2023-09-19T02:10:15;100048.53;;;12.90;nan
70781;BME280;72716;48.814;2.126;2023-09-19T02:12:42;100052.97;;;12.86;nan
70781;BME280;72716;48.814;2.126;2023-09-19T02:15:08;100049.53;;;12.82;nan
70781;BME280;72716;48.814;2.126;2023-09-19T02:17:34;100046.91;;;12.81;nan
70781;BME280;72716;48.814;2.126;2023-09-19T02:19:59;100039.13;;;12.76;nan
70781;BME280;72716;48.814;2.126;2023-09-19T02:22:26;100044.44;;;12.73;nan
70781;BME280;72716;48.814;2.126;2023-09-19T02:28:14;100047.94;;;12.72;nan
70781;BME280;72716;48.814;2.126;2023-09-19T02:30:39;100050.56;;;12.72;nan
70781;BME280;72716;48.814;2.126;2023-09-19T02:33:04;100050.56;;;12.72;nan
70781;BME280;72716;48.814;2.126;2023-09-19T02:35:30;100048.75;;;12.75;nan
70781;BME280;72716;48.814;2.126;2023-09-19T02:38:00;100048.69;;;12.79;nan
70781;BME280;72716;48.814;2.126;2023-09-19T02:40:25;100045.25;;;12.75;nan
70781;BME280;72716;48.814;2.126;2023-09-19T02:42:55;100053.16;;;12.73;nan
70781;BME280;72716;48.814;2.126;2023-09-19T02:45:20;100050.56;;;12.72;nan
70781;BME280;72716;48.814;2.126;2023-09-19T02:47:47;100049.66;;;12.74;nan
70781;BME280;72716;48.814;2.126;2023-09-19T02:50:13;100040.94;;;12.72;nan
70781;BME280;72716;48.814;2.126;2023-09-19T02:52:42;100040.13;;;12.69;nan
70781;BME280;72716;48.814;2.126;2023-09-19T02:55:12;100047.97;;;12.70;nan
70781;BME280;72716;48.814;2.126;2023-09-19T02:57:39;100037.50;;;12.69;nan
70781;BME280;72716;48.814;2.126;2023-09-19T03:00:08;100046.06;;;12.79;nan
70781;BME280;72716;48.814;2.126;2023-09-19T03:02:36;100043.56;;;12.72;nan
70781;BME280;72716;48.814;2.126;2023-09-19T03:05:01;100040.97;;;12.71;nan
70781;BME280;72716;48.814;2.126;2023-09-19T03:07:28;100037.59;;;12.61;nan
70781;BME280;72716;48.814;2.126;2023-09-19T03:09:54;100038.47;;;12.61;nan
70781;BME280;72716;48.814;2.126;2023-09-19T03:12:20;100041.06;;;12.63;nan
70781;BME280;72716;48.814;2.126;2023-09-19T03:14:45;100040.16;;;12.66;nan
70781;BME280;72716;48.814;2.126;2023-09-19T03:17:11;100034.97;;;12.62;nan
70781;BME280;72716;48.814;2.126;2023-09-19T03:19:36;100042.91;;;12.56;nan
70781;BME280;72716;48.814;2.126;2023-09-19T03:22:05;100038.56;;;12.55;nan
70781;BME280;72716;48.814;2.126;2023-09-19T03:24:31;100047.31;;;12.56;nan
70781;BME280;72716;48.814;2.126;2023-09-19T03:26:57;100046.41;;;12.57;nan
70781;BME280;72716;48.814;2.126;2023-09-19T03:29:22;100042.88;;;12.59;nan
70781;BME280;72716;48.814;2.126;2023-09-19T03:31:48;100046.41;;;12.58;nan
70781;BME280;72716;48.814;2.126;2023-09-19T03:34:13;100036.81;;;12.57;nan
70781;BME280;72716;48.814;2.126;2023-09-19T03:36:39;100042.06;;;12.54;nan
70781;BME280;72716;48.814;2.126;2023-09-19T03:39:06;100040.28;;;12.56;nan
70781;BME280;72716;48.814;2.126;2023-09-19T03:41:32;100042.13;;;12.51;nan
70781;BME280;72716;48.814;2.126;2023-09-19T03:43:58;100038.56;;;12.55;nan
70781;BME280;72716;48.814;2.126;2023-09-19T03:46:23;100045.66;;;12.50;nan
70781;BME280;72716;48.814;2.126;2023-09-19T03:48:50;100043.91;;;12.49;nan
70781;BME280;72716;48.814;2.126;2023-09-19T03:51:15;100043.06;;;12.47;nan
70781;BME280;72716;48.814;2.126;2023-09-19T03:53:40;100038.75;;;12.43;nan
70781;BME280;72716;48.814;2.126;2023-09-19T03:56:06;100034.41;;;12.42;nan
70781;BME280;72716;48.814;2.126;2023-09-19T03:58:31;100039.56;;;12.46;nan
70781;BME280;72716;48.814;2.126;2023-09-19T04:00:57;100037.03;;;12.42;nan
70781;BME280;72716;48.814;2.126;2023-09-19T04:03:23;100040.44;;;12.47;nan
70781;BME280;72716;48.814;2.126;2023-09-19T04:05:50;100038.69;;;12.46;nan
70781;BME280;72716;48.814;2.126;2023-09-19T04:08:15;100028.25;;;12.43;nan
70781;BME280;72716;48.814;2.126;2023-09-19T04:10:43;100026.44;;;12.48;nan
70781;BME280;72716;48.814;2.126;2023-09-19T04:13:09;100030.88;;;12.43;nan
70781;BME280;72716;48.814;2.126;2023-09-19T04:15:35;100029.97;;;12.45;nan
70781;BME280;72716;48.814;2.126;2023-09-19T04:18:01;100030.03;;;12.41;nan
70781;BME280;72716;48.814;2.126;2023-09-19T04:20:28;100030.06;;;12.37;nan
70781;BME280;72716;48.814;2.126;2023-09-19T04:22:53;100025.59;;;12.44;nan
70781;BME280;72716;48.814;2.126;2023-09-19T04:25:19;100029.97;;;12.44;nan
70781;BME280;72716;48.814;2.126;2023-09-19T04:27:45;100033.50;;;12.43;nan
70781;BME280;72716;48.814;2.126;2023-09-19T04:30:11;100033.56;;;12.40;nan
70781;BME280;72716;48.814;2.126;2023-09-19T04:32:40;100031.81;;;12.38;nan
70781;BME280;72716;48.814;2.126;2023-09-19T04:35:10;100026.59;;;12.38;nan
70781;BME280;72716;48.814;2.126;2023-09-19T04:37:40;100030.03;;;12.41;nan
70781;BME280;72716;48.814;2.126;2023-09-19T04:40:09;100026.53;;;12.42;nan
70781;BME280;72716;48.814;2.126;2023-09-19T04:42:38;100027.44;;;12.39;nan
70781;BME280;72716;48.814;2.126;2023-09-19T04:45:04;100025.56;;;12.46;nan
70781;BME280;72716;48.814;2.126;2023-09-19T04:47:30;100037.06;;;12.40;nan
70781;BME280;72716;48.814;2.126;2023-09-19T04:49:55;100033.59;;;12.36;nan
70781;BME280;72716;48.814;2.126;2023-09-19T04:52:22;100033.66;;;12.30;nan
70781;BME280;72716;48.814;2.126;2023-09-19T04:54:47;100038.06;;;12.30;nan
70781;BME280;72716;48.814;2.126;2023-09-19T04:57:13;100040.72;;;12.28;nan
70781;BME280;72716;48.814;2.126;2023-09-19T04:59:39;100049.31;;;12.38;nan
70781;BME280;72716;48.814;2.126;2023-09-19T05:02:06;100045.88;;;12.34;nan
70781;BME280;72716;48.814;2.126;2023-09-19T05:04:33;100049.41;;;12.33;nan
70781;BME280;72716;48.814;2.126;2023-09-19T05:06:58;100053.63;;;12.41;nan
70781;BME280;72716;48.814;2.126;2023-09-19T05:09:23;100050.25;;;12.32;nan
70781;BME280;72716;48.814;2.126;2023-09-19T05:11:50;100044.94;;;12.38;nan
70781;BME280;72716;48.814;2.126;2023-09-19T05:14:16;100045.81;;;12.37;nan
70781;BME280;72716;48.814;2.126;2023-09-19T05:16:41;100053.63;;;12.41;nan
70781;BME280;72716;48.814;2.126;2023-09-19T05:19:07;100048.50;;;12.33;nan
70781;BME280;72716;48.814;2.126;2023-09-19T05:21:36;100055.50;;;12.32;nan
70781;BME280;72716;48.814;2.126;2023-09-19T05:24:04;100049.31;;;12.38;nan
70781;BME280;72716;48.814;2.126;2023-09-19T05:26:31;100057.09;;;12.44;nan
70781;BME280;72716;48.814;2.126;2023-09-19T05:28:57;100046.66;;;12.41;nan
70781;BME280;72716;48.814;2.126;2023-09-19T05:31:22;100063.22;;;12.45;nan
70781;BME280;72716;48.814;2.126;2023-09-19T05:33:48;100068.50;;;12.42;nan
70781;BME280;72716;48.814;2.126;2023-09-19T05:36:14;100064.94;;;12.46;nan
70781;BME280;72716;48.814;2.126;2023-09-19T05:38:42;100074.59;;;12.42;nan
70781;BME280;72716;48.814;2.126;2023-09-19T05:41:07;100068.69;;;12.29;nan
70781;BME280;72716;48.814;2.126;2023-09-19T05:43:34;100080.88;;;12.32;nan
70781;BME280;72716;48.814;2.126;2023-09-19T05:46:03;100072.22;;;12.25;nan
70781;BME280;72716;48.814;2.126;2023-09-19T05:48:28;100073.06;;;12.27;nan
70781;BME280;72716;48.814;2.126;2023-09-19T05:50:54;100075.69;;;12.27;nan
70781;BME280;72716;48.814;2.126;2023-09-19T05:53:19;100080.06;;;12.30;nan
70781;BME280;72716;48.814;2.126;2023-09-19T05:55:45;100082.69;;;12.28;nan
70781;BME280;72716;48.814;2.126;2023-09-19T05:58:11;100081.75;;;12.32;nan
70781;BME280;72716;48.814;2.126;2023-09-19T06:00:39;100094.88;;;12.32;nan
70781;BME280;72716;48.814;2.126;2023-09-19T06:03:06;100085.25;;;12.33;nan
70781;BME280;72716;48.814;2.126;2023-09-19T06:05:32;100085.19;;;12.36;nan
70781;BME280;72716;48.814;2.126;2023-09-19T06:07:58;100087.78;;;12.39;nan
70781;BME280;72716;48.814;2.126;2023-09-19T06:10:33;100091.31;;;12.36;nan
70781;BME280;72716;48.814;2.126;2023-09-19T06:12:59;100092.94;;;12.44;nan
70781;BME280;72716;48.814;2.126;2023-09-19T06:15:25;100096.47;;;12.43;nan
70781;BME280;72716;48.814;2.126;2023-09-19T06:17:55;100091.97;;;12.51;nan
70781;BME280;72716;48.814;2.126;2023-09-19T06:20:22;100092.88;;;12.52;nan
70781;BME280;72716;48.814;2.126;2023-09-19T06:22:48;100091.88;;;12.60;nan
70781;BME280;72716;48.814;2.126;2023-09-19T06:25:16;100090.09;;;12.61;nan
70781;BME280;72716;48.814;2.126;2023-09-19T06:27:45;100090.91;;;12.68;nan
70781;BME280;72716;48.814;2.126;2023-09-19T06:30:11;100105.78;;;12.66;nan
70781;BME280;72716;48.814;2.126;2023-09-19T06:32:40;100097.88;;;12.67;nan
70781;BME280;72716;48.814;2.126;2023-09-19T06:35:09;100098.78;;;12.68;nan
70781;BME280;72716;48.814;2.126;2023-09-19T06:37:36;100103.13;;;12.69;nan
70781;BME280;72716;48.814;2.126;2023-09-19T06:40:05;100105.72;;;12.70;nan
70781;BME280;72716;48.814;2.126;2023-09-19T06:42:31;100105.66;;;12.73;nan
70781;BME280;72716;48.814;2.126;2023-09-19T06:44:56;100111.75;;;12.77;nan
70781;BME280;72716;48.814;2.126;2023-09-19T06:47:21;100110.03;;;12.74;nan
70781;BME280;72716;48.814;2.126;2023-09-19T06:49:46;100101.22;;;12.79;nan
70781;BME280;72716;48.814;2.126;2023-09-19T06:52:13;100114.28;;;12.85;nan
70781;BME280;72716;48.814;2.126;2023-09-19T06:54:38;100105.38;;;12.92;nan
70781;BME280;72716;48.814;2.126;2023-09-19T06:57:05;100114.09;;;12.96;nan
70781;BME280;72716;48.814;2.126;2023-09-19T06:59:31;100103.47;;;13.04;nan
70781;BME280;72716;48.814;2.126;2023-09-19T07:01:57;100111.31;;;13.05;nan
70781;BME280;72716;48.814;2.126;2023-09-19T07:04:24;100112.09;;;13.12;nan
70781;BME280;72716;48.814;2.126;2023-09-19T07:06:50;100111.09;;;13.18;nan
70781;BME280;72716;48.814;2.126;2023-09-19T07:09:16;100118.97;;;13.18;nan
70781;BME280;72716;48.814;2.126;2023-09-19T07:11:42;100111.00;;;13.24;nan
70781;BME280;72716;48.814;2.126;2023-09-19T07:14:08;100108.19;;;13.37;nan
70781;BME280;72716;48.814;2.126;2023-09-19T07:16:37;100116.69;;;13.50;nan
70781;BME280;72716;48.814;2.126;2023-09-19T07:19:04;100113.97;;;13.57;nan
70781;BME280;72716;48.814;2.126;2023-09-19T07:21:29;100107.03;;;13.53;nan
70781;BME280;72716;48.814;2.126;2023-09-19T07:23:55;100112.88;;;13.69;nan
70781;BME280;72716;48.814;2.126;2023-09-19T07:26:20;100109.25;;;13.75;nan
70781;BME280;72716;48.814;2.126;2023-09-19T07:28:45;100106.47;;;13.84;nan
70781;BME280;72716;48.814;2.126;2023-09-19T07:31:10;100108.13;;;13.89;nan
70781;BME280;72716;48.814;2.126;2023-09-19T07:33:38;100113.38;;;13.89;nan
70781;BME280;72716;48.814;2.126;2023-09-19T07:36:03;100116.94;;;13.86;nan
70781;BME280;72716;48.814;2.126;2023-09-19T07:38:28;100118.50;;;13.96;nan
70781;BME280;72716;48.814;2.126;2023-09-19T07:41:00;100110.69;;;13.93;nan
70781;BME280;72716;48.814;2.126;2023-09-19T07:43:25;100111.47;;;13.97;nan
70781;BME280;72716;48.814;2.126;2023-09-19T07:45:50;100118.47;;;13.98;nan
70781;BME280;72716;48.814;2.126;2023-09-19T07:48:16;100100.84;;;14.03;nan
70781;BME280;72716;48.814;2.126;2023-09-19T07:50:41;100114.75;;;14.08;nan
70781;BME280;72716;48.814;2.126;2023-09-19T07:53:08;100111.19;;;14.11;nan
70781;BME280;72716;48.814;2.126;2023-09-19T07:55:34;100123.69;;;14.00;nan
70781;BME280;72716;48.814;2.126;2023-09-19T07:57:59;100113.13;;;14.01;nan
70781;BME280;72716;48.814;2.126;2023-09-19T08:00:25;100112.06;;;14.12;nan
70781;BME280;72716;48.814;2.126;2023-09-19T08:02:50;100114.69;;;14.12;nan
70781;BME280;72716;48.814;2.126;2023-09-19T08:05:17;100119.00;;;14.16;nan
70781;BME280;72716;48.814;2.126;2023-09-19T08:07:45;100122.69;;;14.07;nan
70781;BME280;72716;48.814;2.126;2023-09-19T08:10:14;100123.53;;;14.09;nan
70781;BME280;72716;48.814;2.126;2023-09-19T08:12:44;100120.91;;;14.09;nan
70781;BME280;72716;48.814;2.126;2023-09-19T08:15:18;100112.75;;;14.20;nan
70781;BME280;72716;48.814;2.126;2023-09-19T08:17:47;100113.78;;;14.13;nan
70781;BME280;72716;48.814;2.126;2023-09-19T08:20:13;100111.88;;;14.19;nan
70781;BME280;72716;48.814;2.126;2023-09-19T08:22:51;100110.72;;;14.35;nan
70781;BME280;72716;48.814;2.126;2023-09-19T08:25:18;100109.50;;;14.50;nan
70781;BME280;72716;48.814;2.126;2023-09-19T08:27:44;100110.41;;;14.49;nan
70781;BME280;72716;48.814;2.126;2023-09-19T08:30:23;100119.09;;;14.52;nan
70781;BME280;72716;48.814;2.126;2023-09-19T08:32:58;100115.50;;;14.56;nan
70781;BME280;72716;48.814;2.126;2023-09-19T08:35:24;100112.75;;;14.61;nan
70781;BME280;72716;48.814;2.126;2023-09-19T08:37:49;100115.94;;;14.76;nan
70781;BME280;72716;48.814;2.126;2023-09-19T08:40:16;100110.56;;;14.82;nan
70781;BME280;72716;48.814;2.126;2023-09-19T08:42:52;100109.41;;;14.94;nan
70781;BME280;72716;48.814;2.126;2023-09-19T08:45:19;100116.44;;;14.95;nan
70781;BME280;72716;48.814;2.126;2023-09-19T08:50:27;100119.16;;;14.90;nan
70781;BME280;72716;48.814;2.126;2023-09-19T08:52:55;100110.03;;;15.04;nan
70781;BME280;72716;48.814;2.126;2023-09-19T08:55:23;100118.44;;;15.20;nan
70781;BME280;72716;48.814;2.126;2023-09-19T08:57:56;100113.09;;;15.23;nan
70781;BME280;72716;48.814;2.126;2023-09-19T09:00:24;100108.34;;;15.38;nan
70781;BME280;72716;48.814;2.126;2023-09-19T09:02:54;100109.84;;;15.48;nan
70781;BME280;72716;48.814;2.126;2023-09-19T09:05:21;100112.56;;;15.44;nan
70781;BME280;72716;48.814;2.126;2023-09-19T09:07:49;100109.28;;;15.69;nan
70781;BME280;72716;48.814;2.126;2023-09-19T09:10:19;100113.66;;;15.70;nan
70781;BME280;72716;48.814;2.126;2023-09-19T09:12:49;100119.28;;;15.89;nan
70781;BME280;72716;48.814;2.126;2023-09-19T09:15:18;100116.25;;;16.05;nan
70781;BME280;72716;48.814;2.126;2023-09-19T09:17:47;100116.59;;;16.24;nan
70781;BME280;72716;48.814;2.126;2023-09-19T09:20:13;100116.25;;;16.05;nan
70781;BME280;72716;48.814;2.126;2023-09-19T09:22:38;100111.25;;;16.25;nan
70781;BME280;72716;48.814;2.126;2023-09-19T09:25:09;100123.00;;;16.45;nan
70781;BME280;72716;48.814;2.126;2023-09-19T09:27:34;100109.25;;;16.34;nan
70781;BME280;72716;48.814;2.126;2023-09-19T09:30:00;100104.91;;;16.33;nan
70781;BME280;72716;48.814;2.126;2023-09-19T09:32:31;100107.44;;;16.36;nan
70781;BME280;72716;48.814;2.126;2023-09-19T09:35:01;100102.06;;;16.39;nan
70781;BME280;72716;48.814;2.126;2023-09-19T09:37:29;100115.22;;;16.41;nan
70781;BME280;72716;48.814;2.126;2023-09-19T09:40:00;100123.44;;;16.60;nan
70781;BME280;72716;48.814;2.126;2023-09-19T09:42:45;100108.13;;;16.43;nan
70781;BME280;72716;48.814;2.126;2023-09-19T09:45:22;100115.78;;;16.50;nan
70781;BME280;72716;48.814;2.126;2023-09-19T09:48:02;100111.84;;;16.64;nan
70781;BME280;72716;48.814;2.126;2023-09-19T09:50:35;100114.59;;;16.61;nan
70781;BME280;72716;48.814;2.126;2023-09-19T09:53:28;100109.13;;;16.67;nan
70781;BME280;72716;48.814;2.126;2023-09-19T09:56:07;100109.00;;;16.99;nan
70781;BME280;72716;48.814;2.126;2023-09-19T09:58:49;100111.91;;;16.91;nan
70781;BME280;72716;48.814;2.126;2023-09-19T10:01:14;100108.28;;;17.22;nan
70781;BME280;72716;48.814;2.126;2023-09-19T10:03:42;100100.50;;;17.18;nan
70781;BME280;72716;48.814;2.126;2023-09-19T10:06:14;100102.72;;;17.56;nan
70781;BME280;72716;48.814;2.126;2023-09-19T10:09:10;100102.78;;;17.54;nan
70781;BME280;72716;48.814;2.126;2023-09-19T10:11:46;100091.25;;;17.57;nan
70781;BME280;72716;48.814;2.126;2023-09-19T10:14:15;100093.13;;;17.79;nan
70781;BME280;72716;48.814;2.126;2023-09-19T10:16:46;100094.50;;;17.89;nan
70781;BME280;72716;48.814;2.126;2023-09-19T10:19:23;100076.16;;;18.08;nan
70781;BME280;72716;48.814;2.126;2023-09-19T10:21:55;100085.50;;;17.69;nan
70781;BME280;72716;48.814;2.126;2023-09-19T10:24:22;100080.97;;;17.73;nan
70781;BME280;72716;48.814;2.126;2023-09-19T10:26:50;100079.44;;;17.66;nan
70781;BME280;72716;48.814;2.126;2023-09-19T10:29:19;100079.16;;;17.50;nan
70781;BME280;72716;48.814;2.126;2023-09-19T10:31:47;100082.28;;;17.61;nan
70781;BME280;72716;48.814;2.126;2023-09-19T10:34:16;100080.44;;;17.63;nan
70781;BME280;72716;48.814;2.126;2023-09-19T10:36:46;100083.25;;;17.58;nan
70781;BME280;72716;48.814;2.126;2023-09-19T10:39:16;100081.81;;;17.50;nan
70781;BME280;72716;48.814;2.126;2023-09-19T10:41:50;100069.47;;;17.48;nan
70781;BME280;72716;48.814;2.126;2023-09-19T10:44:22;100073.94;;;17.72;nan
70781;BME280;72716;48.814;2.126;2023-09-19T10:46:49;100096.09;;;17.69;nan
70781;BME280;72716;48.814;2.126;2023-09-19T10:49:14;100068.88;;;17.66;nan
70781;BME280;72716;48.814;2.126;2023-09-19T10:51:42;100063.97;;;17.55;nan
70781;BME280;72716;48.814;2.126;2023-09-19T10:54:15;100072.97;;;17.75;nan
70781;BME280;72716;48.814;2.126;2023-09-19T10:56:44;100066.53;;;17.82;nan
70781;BME280;72716;48.814;2.126;2023-09-19T10:59:14;100068.38;;;18.04;nan
70781;BME280;72716;48.814;2.126;2023-09-19T11:01:51;100076.94;;;18.35;nan
70781;BME280;72716;48.814;2.126;2023-09-19T11:07:19;100075.75;;;18.19;nan
70781;BME280;72716;48.814;2.126;2023-09-19T11:26:45;100055.25;;;18.01;nan
70781;BME280;72716;48.814;2.126;2023-09-19T11:29:28;100063.53;;;18.17;nan
70781;BME280;72716;48.814;2.126;2023-09-19T11:31:55;100054.81;;;17.89;nan
70781;BME280;72716;48.814;2.126;2023-09-19T11:34:40;100056.47;;;18.16;nan
70781;BME280;72716;48.814;2.126;2023-09-19T11:39:39;100075.09;;;18.37;nan
70781;BME280;72716;48.814;2.126;2023-09-19T11:48:23;100060.16;;;18.12;nan
70781;BME280;72716;48.814;2.126;2023-09-19T11:50:51;100053.16;;;18.33;nan
70781;BME280;72716;48.814;2.126;2023-09-19T11:53:18;100057.56;;;18.56;nan
70781;BME280;72716;48.814;2.126;2023-09-19T11:55:45;100052.94;;;18.39;nan
70781;BME280;72716;48.814;2.126;2023-09-19T11:58:12;100050.09;;;18.22;nan
70781;BME280;72716;48.814;2.126;2023-09-19T12:00:40;100048.75;;;18.34;nan
70781;BME280;72716;48.814;2.126;2023-09-19T12:03:09;100048.41;;;18.65;nan
70781;BME280;72716;48.814;2.126;2023-09-19T12:05:36;100056.50;;;19.47;nan
70781;BME280;72716;48.814;2.126;2023-09-19T12:08:05;100049.66;;;19.41;nan
70781;BME280;72716;48.814;2.126;2023-09-19T12:10:47;100051.72;;;19.14;nan
70781;BME280;72716;48.814;2.126;2023-09-19T12:13:17;100045.34;;;18.52;nan
70781;BME280;72716;48.814;2.126;2023-09-19T12:15:43;100048.25;;;18.68;nan
70781;BME280;72716;48.814;2.126;2023-09-19T12:18:25;100047.41;;;18.46;nan
70781;BME280;72716;48.814;2.126;2023-09-19T12:20:50;100052.41;;;18.97;nan
70781;BME280;72716;48.814;2.126;2023-09-19T12:23:17;100049.13;;;19.33;nan
70781;BME280;72716;48.814;2.126;2023-09-19T12:25:43;100047.59;;;19.48;nan
70781;BME280;72716;48.814;2.126;2023-09-19T12:28:12;100033.63;;;19.24;nan
70781;BME280;72716;48.814;2.126;2023-09-19T12:30:37;100028.09;;;19.08;nan
70781;BME280;72716;48.814;2.126;2023-09-19T12:33:04;100030.19;;;19.22;nan
70781;BME280;72716;48.814;2.126;2023-09-19T12:35:31;100026.94;;;18.72;nan
70781;BME280;72716;48.814;2.126;2023-09-19T12:38:00;100019.09;;;18.68;nan
70781;BME280;72716;48.814;2.126;2023-09-19T12:40:26;100026.88;;;19.16;nan
70781;BME280;72716;48.814;2.126;2023-09-19T12:42:54;100029.47;;;18.96;nan
70781;BME280;72716;48.814;2.126;2023-09-19T12:45:32;100018.03;;;19.37;nan
70781;BME280;72716;48.814;2.126;2023-09-19T12:48:24;100024.22;;;19.16;nan
70781;BME280;72716;48.814;2.126;2023-09-19T12:51:12;100034.56;;;19.63;nan
70781;BME280;72716;48.814;2.126;2023-09-19T12:53:43;100025.31;;;19.11;nan
70781;BME280;72716;48.814;2.126;2023-09-19T12:56:10;100023.03;;;19.24;nan
70781;BME280;72716;48.814;2.126;2023-09-19T12:58:49;100018.84;;;19.18;nan
70781;BME280;72716;48.814;2.126;2023-09-19T13:01:15;100029.00;;;19.29;nan
70781;BME280;72716;48.814;2.126;2023-09-19T13:03:41;100027.09;;;19.10;nan
70781;BME280;72716;48.814;2.126;2023-09-19T13:06:07;100009.75;;;19.24;nan
70781;BME280;72716;48.814;2.126;2023-09-19T13:08:38;100040.78;;;19.22;nan
70781;BME280;72716;48.814;2.126;2023-09-19T13:11:16;100016.06;;;19.61;nan
70781;BME280;72716;48.814;2.126;2023-09-19T13:13:50;100005.41;;;19.82;nan
70781;BME280;72716;48.814;2.126;2023-09-19T13:16:21;100013.38;;;19.82;nan
70781;BME280;72716;48.814;2.126;2023-09-19T13:18:52;100008.41;;;19.94;nan
70781;BME280;72716;48.814;2.126;2023-09-19T13:21:29;100009.72;;;20.78;nan
70781;BME280;72716;48.814;2.126;2023-09-19T13:24:21;100003.09;;;19.94;nan
70781;BME280;72716;48.814;2.126;2023-09-19T13:26:48;100001.88;;;19.82;nan
70781;BME280;72716;48.814;2.126;2023-09-19T13:29:13;100001.59;;;19.69;nan
70781;BME280;72716;48.814;2.126;2023-09-19T13:31:45;100008.13;;;20.00;nan
70781;BME280;72716;48.814;2.126;2023-09-19T13:34:11;100000.53;;;20.11;nan
70781;BME280;72716;48.814;2.126;2023-09-19T13:36:36;99994.22;;;20.51;nan
70781;BME280;72716;48.814;2.126;2023-09-19T13:39:02;99997.50;;;20.19;nan
70781;BME280;72716;48.814;2.126;2023-09-19T13:41:27;99983.97;;;20.06;nan
70781;BME280;72716;48.814;2.126;2023-09-19T13:43:53;99999.88;;;19.87;nan
70781;BME280;72716;48.814;2.126;2023-09-19T13:46:21;99995.81;;;19.59;nan
70781;BME280;72716;48.814;2.126;2023-09-19T13:48:51;99984.38;;;19.58;nan
70781;BME280;72716;48.814;2.126;2023-09-19T13:51:20;99975.75;;;19.53;nan
70781;BME280;72716;48.814;2.126;2023-09-19T13:53:48;99984.22;;;19.81;nan
70781;BME280;72716;48.814;2.126;2023-09-19T13:56:13;99973.34;;;19.47;nan
70781;BME280;72716;48.814;2.126;2023-09-19T13:58:39;99978.09;;;19.19;nan
70781;BME280;72716;48.814;2.126;2023-09-19T14:01:04;99975.13;;;19.27;nan
70781;BME280;72716;48.814;2.126;2023-09-19T14:03:30;99975.41;;;19.21;nan
70781;BME280;72716;48.814;2.126;2023-09-19T14:05:56;99981.38;;;19.26;nan